FW4142 Weather Reports


Display with metric or nautical units.
time (UTC)temp
F
wind
direction
speed
MPH
gust
MPH
rain 1hr
in
rain 24hr
in
rain mn
in
humidity
%
barometer
mb
20190818153226 59 46 1.0 9.0 0.06 0.08 0.06 85 1001.5
20190818151611 59 248 3.0 12.0 0.03 0.05 0.03 82 1001.6
20190818150225 61 316 2.0 14.0 0.00 0.02 0.00 78 1001.4
20190818144646 61 314 5.0 20.0 0.00 0.02 0.00 77 1001.2
20190818143057 62 256 3.0 13.0 0.00 0.02 0.00 77 1001.1
20190818141619 63 200 5.0 16.0 0.00 0.02 0.00 71 1000.9
20190818140125 64 161 6.0 18.0 0.00 0.02 0.00 70 1000.8
20190818134729 63 131 4.0 12.0 0.00 0.02 0.00 74 1000.8
20190818133041 61 321 4.0 14.0 0.00 0.02 0.00 76 1000.7
20190818131628 63 221 4.0 10.0 0.00 0.02 0.00 73 1000.7
20190818130212 64 30 5.0 15.0 0.00 0.02 0.00 68 1000.3
20190818124616 63 138 4.0 11.0 0.00 0.02 0.00 72 1000.5
20190818123137 63 235 4.0 18.0 0.00 0.02 0.00 70 1000.3
20190818121558 62 210 4.0 11.0 0.00 0.02 0.00 76 1000.2
20190818120059 62 319 6.0 22.0 0.00 0.02 0.00 70 1000.2
20190818114535 63 131 5.0 12.0 0.00 0.02 0.00 70 1000.0
20190818113105 62 137 5.0 15.0 0.00 0.02 0.00 73 999.8
20190818111527 61 245 4.0 14.0 0.00 0.02 0.00 76 999.8
20190818110038 61 239 6.0 18.0 0.00 0.02 0.00 75 999.8
20190818104530 61 252 6.0 17.0 0.00 0.02 0.00 71 999.4
20190818103032 61 213 6.0 18.0 0.00 0.02 0.00 72 999.3
20190818101540 61 225 6.0 14.0 0.00 0.02 0.00 70 999.2
20190818100027 61 221 5.0 16.0 0.00 0.02 0.00 72 999.2
20190818094533 58 65 6.0 15.0 0.00 0.02 0.00 74 999.1
20190818093026 58 161 6.0 17.0 0.00 0.02 0.00 74 999.0
20190818091514 57 206 4.0 15.0 0.00 0.02 0.00 75 998.6
20190818090004 57 117 5.0 16.0 0.00 0.02 0.00 75 998.4
20190818084723 56 295 4.0 16.0 0.00 0.02 0.00 76 998.4
20190818083153 56 168 4.0 22.0 0.00 0.02 0.00 77 998.2
20190818081659 55 255 4.0 23.0 0.00 0.02 0.00 77 998.1
20190818080248 55 226 5.0 16.0 0.00 0.02 0.00 79 998.1
20190818074632 55 217 8.0 19.0 0.00 0.02 0.00 79 998.3
20190818073137 55 277 7.0 23.0 0.00 0.02 0.00 79 998.1
20190818071652 55 162 5.0 18.0 0.00 0.02 0.00 79 997.8
20190818070147 55 219 5.0 16.0 0.00 0.02 0.00 79 997.6
20190818064708 55 140 5.0 24.0 0.00 0.02 0.00 78 997.8
20190818063149 55 301 6.0 19.0 0.00 0.02 0.00 78 997.7
20190818061719 55 113 5.0 15.0 0.00 0.02 0.00 78 997.6
20190818060112 55 227 6.0 19.0 0.00 0.02 0.00 79 997.5
20190818054635 54 335 4.0 19.0 0.00 0.02 0.00 79 997.6
20190818053056 54 180 6.0 19.0 0.00 0.02 0.00 80 997.6
20190818051633 54 305 4.0 14.0 0.00 0.02 0.00 80 997.7
20190818050101 54 215 6.0 16.0 0.00 0.02 0.00 79 997.7
20190818044608 54 189 5.0 17.0 0.00 0.02 0.00 78 997.5
20190818043044 54 199 5.0 17.0 0.00 0.02 0.00 79 997.5
20190818033125 54 8 4.0 21.0 0.00 0.02 0.00 78 997.4
20190818031646 55 180 3.0 14.0 0.00 0.02 0.00 78 997.7
20190818030108 55 195 5.0 16.0 0.00 0.02 0.00 77 997.9
20190818024617 55 227 6.0 16.0 0.00 0.02 0.00 77 998.1
20190818023106 55 240 7.0 22.0 0.00 0.02 0.00 77 998.0
20190818021601 55 4 7.0 20.0 0.00 0.02 0.00 77 998.1
20190818020036 55 96 4.0 19.0 0.00 0.03 0.00 77 998.5
20190818014626 55 155 3.0 13.0 0.00 0.03 0.00 77 998.6
20190818013056 55 233 6.0 14.0 0.00 0.03 0.00 77 998.7
20190818011537 55 179 5.0 12.0 0.00 0.03 0.00 78 998.8
20190818010028 55 250 3.0 12.0 0.00 0.03 0.00 78 998.8
20190818004524 55 296 6.0 13.0 0.00 0.03 0.00 78 998.8
20190818003029 55 197 7.0 17.0 0.00 0.03 0.00 77 999.0
20190818001546 55 225 4.0 13.0 0.00 0.03 0.00 77 999.0
20190818000022 55 127 5.0 15.0 0.00 0.03 0.00 77 999.1
20190817234507 56 217 4.0 15.0 0.00 0.03 0.00 77 999.2
20190817233006 56 312 3.0 13.0 0.00 0.03 0.00 77 999.3
20190817231514 56 239 4.0 15.0 0.00 0.03 0.00 77 999.3
20190817230319 56 226 4.0 12.0 0.00 0.03 0.00 77 999.3
20190817224815 56 43 4.0 14.0 0.00 0.03 0.03 75 999.4
20190817223235 56 240 4.0 12.0 0.00 0.03 0.03 75 999.6
20190817221811 57 195 3.0 13.0 0.00 0.03 0.03 75 999.8
20190817220203 57 215 5.0 16.0 0.00 0.04 0.03 75 999.7
20190817214710 57 203 3.0 12.0 0.00 0.04 0.03 76 999.6
20190817213157 57 147 3.0 11.0 0.00 0.04 0.03 76 999.6
20190817211817 57 328 4.0 11.0 0.00 0.04 0.03 78 999.8
20190817210146 57 195 5.0 12.0 0.02 0.04 0.03 79 999.7
20190817204616 57 264 2.0 7.0 0.02 0.04 0.03 79 999.6
20190817203223 57 241 2.0 6.0 0.02 0.04 0.03 81 999.8
20190817201757 58 131 1.0 11.0 0.02 0.04 0.03 77 1000.0
20190817200137 60 125 2.0 6.0 0.00 0.02 0.01 71 999.8
20190817194624 61 148 2.0 14.0 0.00 0.02 0.01 67 999.4
20190817193058 62 175 2.0 8.0 0.00 0.02 0.01 66 999.5
20190817191648 62 149 4.0 13.0 0.00 0.02 0.01 65 999.6
20190817190121 62 352 2.0 8.0 0.00 0.02 0.01 69 999.5
20190817184707 63 250 1.0 7.0 0.00 0.02 0.01 68 999.4
20190817183204 64 277 1.0 8.0 0.00 0.02 0.01 62 999.2
20190817181618 64 295 4.0 13.0 0.00 0.02 0.01 61 999.3
20190817180154 65 134 4.0 14.0 0.00 0.03 0.01 59 999.3
20190817174628 65 265 7.0 17.0 0.00 0.03 0.01 59 999.3
20190817173138 65 217 5.0 15.0 0.00 0.03 0.01 59 999.4
20190817171642 66 211 6.0 15.0 0.00 0.03 0.01 59 999.2
20190817170126 66 331 3.0 16.0 0.00 0.03 0.01 60 999.2
20190817164625 66 134 3.0 12.0 0.00 0.03 0.01 61 999.3
20190817163208 66 127 2.0 14.0 0.00 0.03 0.01 62 999.3
20190817161619 65 214 7.0 16.0 0.00 0.03 0.01 59 999.6
20190817160140 64 214 6.0 15.0 0.00 0.03 0.01 58 999.7
20190817154649 65 235 7.0 18.0 0.00 0.03 0.01 56 999.5